Latest Weather Observations for Low Isles

IDQ60801

Issued at 6:12 pm EST Thursday 21 February 2019 (issued every 10 minutes, with the page automatically refreshed every 10 minutes)

About weather observations | Map of weather stations | Latest weather observations for QLD | Other Formats
Station Details ID: 031037 Name: LOW ISLES LIGHTHOUSE Lat: -16.38 Lon: 145.56 Height: 2.9 m
Data from the previous 72 hours. | See also: Recent months at Low Isles
Date/Time
EST
Temp
°C
App
Temp
°C
Dew
Point
°C
Rel
Hum
%
Delta-T
°C
Wind Press
QNH
hPa
Press
MSL
hPa
Rain since
9am
mm
Dir  Spd
km/h
Gust
km/h
Spd
kts
Gust
kts
21/06:00pm 31.6 35.5 26.6 75 3.6 N 19 24 10 13 1002.7 1002.6 0.0
21/05:30pm 32.1 36.0 26.9 74 3.8 N 20 24 11 13 1002.5 1002.4 0.0
21/05:00pm 33.0 36.8 26.8 70 4.5 N 20 24 11 13 1002.5 1002.4 0.0
21/04:30pm 33.4 36.4 26.7 68 4.8 N 24 30 13 16 1002.6 1002.5 0.0
21/04:00pm 33.6 36.4 26.9 68 4.9 N 26 30 14 16 1002.7 1002.6 0.0
21/03:30pm 33.8 36.0 26.0 63 5.6 N 26 30 14 16 1003.0 1002.9 0.0
21/03:00pm 34.1 37.0 26.6 65 5.4 N 24 28 13 15 1003.3 1003.2 0.0
21/02:30pm 33.7 36.2 25.4 62 5.9 N 22 28 12 15 1003.6 1003.5 0.0
21/02:00pm 34.5 37.0 25.9 61 6.2 NNE 24 28 13 15 1004.0 1003.9 0.0
21/01:30pm 34.2 36.7 25.9 62 5.9 N 24 28 13 15 1004.6 1004.5 0.0
21/01:00pm 35.0 38.3 27.2 64 5.7 N 24 26 13 14 1005.3 1005.2 0.0
21/12:30pm 34.8 38.4 27.0 64 5.7 N 22 24 12 13 1005.8 1005.7 0.0
21/12:00pm 34.8 38.9 26.4 61 6.1 N 17 20 9 11 1006.3 1006.2 0.0
21/11:30am 36.3 41.2 27.0 59 6.8 N 15 20 8 11 1006.5 1006.4 0.0
21/11:00am 35.1 40.4 26.4 60 6.3 N 11 15 6 8 1006.8 1006.7 0.0
21/10:30am 33.9 36.5 23.3 54 7.4 SSW 15 22 8 12 1006.8 1006.7 0.0
21/10:00am 33.6 38.6 24.8 60 6.2 SW 7 7 4 4 1006.8 1006.7 0.0
21/09:30am 32.6 36.5 24.9 64 5.4 W 13 19 7 10 1006.7 1006.6 0.0
21/09:00am 31.9 35.8 24.2 63 5.4 W 11 15 6 8 1006.7 1006.6 0.0
21/08:30am 32.4 35.3 23.1 58 6.4 WSW 13 17 7 9 1006.7 1006.6 0.0
21/08:00am 31.5 34.9 24.1 65 5.2 WSW 13 19 7 10 1006.6 1006.5 0.0
21/07:30am 31.4 34.6 22.4 59 6.1 SW 9 13 5 7 1006.3 1006.2 0.0
21/07:00am 30.9 34.0 24.1 67 4.7 W 15 20 8 11 1005.8 1005.7 0.0
21/06:30am 31.1 33.8 24.2 66 4.8 W 17 26 9 14 1005.3 1005.2 0.0
21/06:00am 31.9 32.7 23.2 60 6.0 WSW 24 32 13 17 1004.9 1004.8 0.0
21/05:30am 31.6 32.6 24.2 65 5.2 WSW 26 32 14 17 1004.5 1004.4 0.0
21/05:00am 31.5 33.0 24.9 68 4.7 WSW 26 32 14 17 1004.2 1004.1 0.0
21/04:30am 31.6 33.4 23.2 61 5.8 W 19 24 10 13 1004.1 1004.0 0.0
21/04:00am 32.6 34.4 23.5 58 6.3 WSW 20 24 11 13 1003.8 1003.7 0.0
21/03:30am 32.2 32.9 22.9 58 6.4 WSW 24 28 13 15 1003.8 1003.7 0.0
21/03:00am 32.1 33.1 24.2 63 5.5 WSW 26 30 14 16 1003.8 1003.7 0.0
21/02:30am 32.1 33.2 24.4 63 5.4 WSW 26 30 14 16 1003.9 1003.8 0.0
21/02:00am 31.6 33.7 24.7 67 4.9 WSW 22 26 12 14 1004.3 1004.2 0.0
21/01:30am 30.9 33.2 25.0 71 4.2 NW 22 28 12 15 1004.8 1004.7 0.0
21/01:00am 30.6 33.6 24.7 71 4.1 NW 17 20 9 11 1005.1 1005.0 0.0
21/12:30am 31.0 33.4 24.6 68 4.5 WNW 20 22 11 12 1005.4 1005.3 0.0
21/12:00am 30.9 33.1 24.8 70 4.3 WNW 22 26 12 14 1005.5 1005.4 0.0
 
Date/Time
EST
Temp
°C
App
Temp
°C
Dew
Point
°C
Rel
Hum
%
Delta-T
°C
Wind Press
QNH
hPa
Press
MSL
hPa
Rain since
9am
mm
Dir  Spd
km/h
Gust
km/h
Spd
kts
Gust
kts
20/11:30pm 31.2 33.4 24.8 69 4.5 WNW 22 26 12 14 1005.7 1005.6 0.0
20/11:00pm 31.3 33.6 24.4 66 4.8 NW 20 26 11 14 1006.0 1005.9 0.0
20/10:30pm 31.4 33.4 24.5 67 4.8 WNW 22 28 12 15 1006.2 1006.1 0.0
20/10:00pm 31.5 33.3 24.9 68 4.7 WNW 24 30 13 16 1006.2 1006.1 0.0
20/09:30pm 31.4 33.9 24.8 68 4.6 WNW 20 26 11 14 1006.0 1005.9 0.0
20/09:00pm 31.4 34.6 25.0 69 4.5 WNW 17 19 9 10 1005.7 1005.6 0.0
20/08:30pm 31.4 34.2 24.3 66 5.0 W 17 26 9 14 1005.4 1005.3 0.0
20/08:00pm 30.2 34.8 25.9 78 3.1 NW 13 15 7 8 1005.1 1005.0 0.0
20/07:30pm 30.1 35.4 25.8 78 3.1 NNW 9 13 5 7 1004.7 1004.6 0.0
20/07:00pm 30.5 36.0 26.7 80 2.7 N 11 15 6 8 1004.5 1004.4 0.0
20/06:30pm 31.0 35.9 26.9 79 3.0 N 15 20 8 11 1004.3 1004.2 0.0
20/06:00pm 31.7 35.8 26.9 76 3.5 NNW 19 22 10 12 1004.2 1004.1 0.0
20/05:30pm 32.3 37.0 26.1 70 4.4 N 13 17 7 9 1004.0 1003.9 0.0
20/05:00pm 32.8 36.7 26.1 68 4.8 NNW 17 20 9 11 1003.7 1003.6 0.0
20/04:30pm 33.3 36.7 25.8 65 5.4 N 19 24 10 13 1003.7 1003.6 0.0
20/04:00pm 34.2 38.3 26.4 64 5.6 N 17 24 9 13 1003.7 1003.6 0.0
20/03:30pm 34.0 38.0 26.2 63 5.6 N 17 20 9 11 1003.8 1003.7 0.0
20/03:00pm 35.1 38.7 26.4 60 6.3 N 20 26 11 14 1004.0 1003.9 0.0
20/02:30pm 35.2 39.8 26.0 59 6.6 W 13 19 7 10 1004.4 1004.3 0.0
20/02:00pm 35.0 39.3 24.9 55 7.2 SW 11 13 6 7 1005.1 1005.0 0.0
20/01:30pm 34.4 35.9 23.1 51 7.8 SSW 20 28 11 15 1005.3 1005.2 0.0
20/01:00pm 34.8 33.9 22.2 48 8.7 SSW 30 44 16 24 1006.0 1005.9 0.0
20/12:59pm 34.9 34.3 21.9 46 8.9 SSW 28 44 15 24 1006.1 1006.0 0.0
20/12:30pm 37.1 40.9 22.4 42 10.2 ENE 6 11 3 6 1006.4 1006.3 0.0
20/12:00pm 36.1 39.6 21.1 41 10.2 NE 4 9 2 5 1006.9 1006.8 0.0
20/11:30am 35.0 39.3 23.7 52 7.9 NNE 7 9 4 5 1007.4 1007.3 0.0
20/11:00am 34.1 38.3 23.2 53 7.6 NE 6 9 3 5 1007.7 1007.6 0.0
20/10:30am 32.2 36.1 22.6 57 6.6 S 6 6 3 3 1007.9 1007.8 0.0
20/10:00am 31.1 34.7 22.1 58 6.1 SSE 6 7 3 4 1008.0 1007.9 0.0
20/09:30am 30.2 35.5 23.1 65 4.9 CALM 0 0 0 0 1008.2 1008.1 0.0
20/09:00am 29.5 34.5 22.5 66 4.8 CALM 0 0 0 0 1008.2 1008.1 0.0
20/08:30am 28.9 33.4 22.2 67 4.5 SE 2 6 1 3 1008.1 1008.0 0.0
20/08:00am 28.8 32.1 21.8 66 4.7 SSE 7 9 4 5 1008.1 1008.0 0.0
20/07:30am 28.4 32.1 22.6 71 3.9 SSW 7 11 4 6 1007.9 1007.8 0.0
20/07:00am 28.5 30.7 23.2 73 3.6 SW 17 20 9 11 1007.7 1007.6 0.0
20/06:30am 28.6 29.1 21.9 67 4.5 WNW 22 28 12 15 1007.6 1007.5 0.0
20/06:00am 28.7 29.2 21.2 64 5.0 W 20 26 11 14 1007.3 1007.2 0.0
20/05:30am 28.4 31.5 22.9 72 3.7 SSW 11 15 6 8 1007.2 1007.1 0.0
20/05:00am 28.7 29.9 22.2 68 4.4 W 19 22 10 12 1007.1 1007.0 0.0
20/04:30am 28.4 29.7 21.7 67 4.5 WNW 17 22 9 12 1006.8 1006.7 0.0
20/04:00am 28.3 32.7 21.3 65 4.7 CALM 0 0 0 0 1006.6 1006.5 0.0
20/03:30am 29.3 31.3 22.3 66 4.7 WSW 15 19 8 10 1006.7 1006.6 0.0
20/03:00am 28.7 30.7 22.2 68 4.4 WNW 15 20 8 11 1006.7 1006.6 0.0
20/02:30am 27.9 32.1 21.7 69 4.2 W 2 9 1 5 1007.0 1006.9 0.0
20/02:00am 28.1 31.9 22.8 73 3.6 SW 7 11 4 6 1007.0 1006.9 0.0
20/01:30am 28.2 29.8 22.9 73 3.6 WSW 19 20 10 11 1007.2 1007.1 0.0
20/01:00am 28.3 29.8 23.7 76 3.2 WSW 22 26 12 14 1007.2 1007.1 0.0
20/12:30am 29.0 29.1 22.5 68 4.4 W 26 30 14 16 1007.0 1006.9 0.0
20/12:00am 29.2 30.6 22.9 69 4.3 WNW 20 26 11 14 1007.3 1007.2 0.0
 
Date/Time
EST
Temp
°C
App
Temp
°C
Dew
Point
°C
Rel
Hum
%
Delta-T
°C
Wind Press
QNH
hPa
Press
MSL
hPa
Rain since
9am
mm
Dir  Spd
km/h
Gust
km/h
Spd
kts
Gust
kts
19/11:30pm 29.2 31.5 22.7 68 4.4 WNW 15 17 8 9 1007.3 1007.2 0.0
19/11:00pm 29.2 31.5 22.7 68 4.4 WSW 15 17 8 9 1007.6 1007.5 0.0
19/10:30pm 29.4 30.4 22.9 68 4.4 W 22 28 12 15 1007.7 1007.6 0.0
19/10:00pm 29.2 29.7 22.7 68 4.4 WNW 24 32 13 17 1007.7 1007.6 0.0
19/09:30pm 29.0 29.7 23.0 70 4.1 WNW 24 28 13 15 1007.7 1007.6 0.0
19/09:00pm 28.7 30.3 22.9 71 4.0 WNW 19 24 10 13 1007.4 1007.3 0.0
19/08:30pm 28.8 30.0 23.2 71 3.8 W 22 24 12 13 1006.8 1006.7 0.0
19/08:00pm 29.0 30.2 22.2 66 4.6 SW 19 26 10 14 1006.5 1006.4 0.0
19/07:30pm 28.8 30.5 23.0 71 4.0 WSW 19 22 10 12 1005.9 1005.8 0.0
19/07:00pm 29.5 30.7 22.2 65 5.0 WSW 19 26 10 14 1005.7 1005.6 0.0
19/06:45pm 29.1 29.2 22.6 68 4.4 W 26 32 14 17 1005.7 1005.6 0.0
19/06:30pm 29.0 27.1 23.4 72 3.8 WSW 39 44 21 24 1005.5 1005.4 0.0
19/06:00pm 27.7 24.5 23.5 78 2.9 SW 46 52 25 28 1005.8 1005.7 0.0
19/05:30pm 29.0 25.6 23.7 73 3.7 WSW 48 59 26 32 1005.8 1005.7 0.0
19/05:12pm 28.0 23.1 23.8 78 2.9 SSW 56 70 30 38 1005.8 1005.7 0.0
19/05:00pm 28.2 21.2 23.8 77 3.0 SSW 67 76 36 41 1006.1 1006.0 0.0
19/04:48pm 28.7 23.4 24.7 79 2.8 S 61 82 33 44 1006.1 1006.0 0.0
19/04:41pm 29.0 23.5 22.7 69 4.3 SSE 56 70 30 38 1005.8 1005.7 0.0
19/04:30pm 29.8 26.3 23.0 67 4.7 SSE 46 56 25 30 1005.6 1005.5 0.0
19/04:14pm 28.9 26.1 23.1 71 4.0 SSE 43 56 23 30 1005.9 1005.8 0.0
19/04:07pm 30.0 27.9 22.4 63 5.2 SE 37 56 20 30 1006.0 1005.9 0.0
19/04:00pm 30.3 30.5 23.5 67 4.7 ESE 28 39 15 21 1005.8 1005.7 0.0
19/03:56pm 30.1 29.6 22.8 65 5.0 SE 30 41 16 22 1005.7 1005.6 0.0
19/03:47pm 29.7 28.3 21.9 63 5.3 SE 32 46 17 25 1005.8 1005.7 0.0
19/03:43pm 31.1 31.1 23.0 62 5.6 ESE 28 46 15 25 1005.9 1005.8 0.0
19/03:30pm 32.0 35.0 26.1 71 4.2 N 22 26 12 14 1005.3 1005.2 0.0
19/03:00pm 32.5 34.1 25.8 68 4.8 N 28 30 15 16 1004.8 1004.7 0.0
19/02:30pm 32.3 33.7 25.4 67 4.9 N 28 32 15 17 1005.1 1005.0 0.0
19/02:00pm 32.8 36.0 25.9 67 4.9 N 20 24 11 13 1005.6 1005.5 0.0
19/01:30pm 33.8 37.5 25.8 63 5.7 N 17 19 9 10 1006.2 1006.1 0.0
19/01:00pm 34.2 38.4 25.9 62 6.0 N 15 17 8 9 1006.7 1006.6 0.0
19/12:30pm 33.8 37.9 25.8 63 5.7 N 15 17 8 9 1007.3 1007.2 0.0
19/12:00pm 33.4 37.8 25.6 63 5.6 N 13 15 7 8 1007.9 1007.8 0.0
19/11:30am 32.5 37.2 25.6 67 4.9 N 11 13 6 7 1008.2 1008.1 0.0
19/11:00am 30.9 36.7 24.5 68 4.5 W 2 7 1 4 1008.6 1008.5 0.0
19/10:30am 29.7 33.6 23.6 69 4.2 WSW 9 11 5 6 1008.9 1008.8 0.0
19/10:00am 29.4 32.2 23.6 71 4.0 WSW 15 17 8 9 1009.1 1009.0 0.0
19/09:30am 30.0 32.4 24.6 73 3.8 W 20 24 11 13 1009.4 1009.3 0.0
19/09:00am 29.7 32.5 24.3 73 3.8 W 17 20 9 11 1009.4 1009.3 0.0
19/08:30am 28.9 31.0 23.8 74 3.5 W 19 20 10 11 1009.3 1009.2 0.0
19/08:00am 28.6 30.8 24.2 77 3.1 W 20 22 11 12 1009.1 1009.0 0.0
19/07:30am 28.3 30.1 24.3 79 2.8 W 22 26 12 14 1008.9 1008.8 0.0
19/07:00am 27.9 30.5 23.9 79 2.8 WNW 17 20 9 11 1008.7 1008.6 0.0
19/06:30am 27.6 31.2 23.8 80 2.6 WSW 11 13 6 7 1008.7 1008.6 0.0
19/06:00am 28.1 30.4 24.1 79 2.8 W 19 20 10 11 1008.7 1008.6 0.0
19/05:30am 28.2 29.9 24.0 78 2.9 W 22 26 12 14 1008.5 1008.4 0.0
19/05:00am 27.9 28.5 24.1 80 2.6 W 28 32 15 17 1008.3 1008.2 0.0
19/04:30am 27.7 29.5 24.3 82 2.4 W 22 28 12 15 1008.3 1008.2 0.0
19/04:00am 27.5 30.2 24.1 82 2.4 W 17 20 9 11 1008.2 1008.1 0.0
19/03:30am 27.7 29.7 23.9 80 2.6 W 20 26 11 14 1008.2 1008.1 0.0
19/03:00am 27.8 30.8 24.6 83 2.2 W 17 24 9 13 1008.4 1008.3 0.0
19/02:30am 27.5 30.2 24.1 82 2.3 WNW 17 20 9 11 1008.5 1008.4 0.0
19/02:00am 27.9 30.4 24.7 83 2.2 WNW 20 24 11 13 1008.6 1008.5 0.0
19/01:30am 27.7 30.2 24.5 83 2.2 WNW 19 20 10 11 1008.9 1008.8 0.0
19/01:00am 28.0 30.5 24.8 83 2.2 WNW 20 22 11 12 1009.3 1009.2 0.0
19/12:30am 28.1 31.6 24.9 83 2.2 NW 15 19 8 10 1009.6 1009.5 0.0
19/12:00am 28.4 31.2 25.2 83 2.2 WNW 20 22 11 12 1009.7 1009.6 0.0
 
Date/Time
EST
Temp
°C
App
Temp
°C
Dew
Point
°C
Rel
Hum
%
Delta-T
°C
Wind Press
QNH
hPa
Press
MSL
hPa
Rain since
9am
mm
Dir  Spd
km/h
Gust
km/h
Spd
kts
Gust
kts
18/11:30pm 28.1 30.8 25.1 84 2.1 NW 20 22 11 12 1009.8 1009.7 0.0
18/11:00pm 28.6 31.4 25.2 82 2.4 NW 20 22 11 12 1009.9 1009.8 0.0
18/10:30pm 29.0 30.9 25.0 79 2.8 N 24 28 13 15 1010.2 1010.1 0.0
18/10:00pm 28.6 31.1 24.8 80 2.7 N 20 24 11 13 1010.1 1010.0 0.0
18/09:30pm 28.6 31.3 24.8 80 2.7 N 19 22 10 12 1009.7 1009.6 0.0
18/09:00pm 28.4 31.3 24.4 79 2.8 N 17 19 9 10 1009.6 1009.5 0.0
18/08:30pm 28.6 31.8 24.4 78 2.9 N 15 20 8 11 1009.2 1009.1 0.0
18/08:00pm 28.7 31.1 24.3 77 3.1 N 19 22 10 12 1009.0 1008.9 0.0
18/07:30pm 28.8 31.5 24.1 76 3.3 N 17 19 9 10 1008.8 1008.7 0.0
18/07:00pm 28.9 32.0 24.2 76 3.3 N 15 19 8 10 1008.5 1008.4 0.0
18/06:30pm 28.9 31.9 24.0 75 3.4 N 15 17 8 9 1008.1 1008.0 0.0

Other formats

Comma delimited format used in spreadsheet applications
http://www.bom.gov.au/fwo/IDQ60801/IDQ60801.94285.axf

JavaScript Object Notation format (JSON) in row-major order
http://www.bom.gov.au/fwo/IDQ60801/IDQ60801.94285.json

Data quality

Most of these data are generated automatically and are frequently updated. Quality checks on data are not normally performed. It is possible for incorrect values to appear. Refer to information at About Latest Weather Observations and please check the disclaimer before using these data.